Time;durP1;ratioP1;P1;durP2;ratioP2;P2;SDS_P1;SDS_P2;PMS_P1;PMS_P2;Temp;Humidity;BMP_temperature;BMP_pressure;BME280_temperature;BME280_humidity;BME280_pressure;Samples;Min_cycle;Max_cycle;Signal;HPM_P1;HPM_P2
2023/12/23 00:00:08;;;;;;;2.83;1.10;;;10.30;99.90;;;;;;5047029;28;20411;-70
2023/12/23 00:02:34;;;;;;;3.10;1.57;;;10.20;99.90;;;;;;5054673;28;20171;-70
2023/12/23 00:04:59;;;;;;;4.77;1.60;;;10.10;99.90;;;;;;5054704;28;20795;-70
2023/12/23 00:07:25;;;;;;;2.60;1.23;;;10.10;99.90;;;;;;5036305;28;20623;-70
2023/12/23 00:09:50;;;;;;;2.63;1.20;;;10.00;99.90;;;;;;5061980;28;20171;-70
2023/12/23 00:12:16;;;;;;;4.83;1.50;;;10.10;99.90;;;;;;5074237;28;20599;-70
2023/12/23 00:14:42;;;;;;;2.80;1.10;;;10.10;99.90;;;;;;5074787;28;20195;-70
2023/12/23 00:17:07;;;;;;;2.70;1.00;;;10.10;99.90;;;;;;5074599;28;20197;-70
2023/12/23 00:19:33;;;;;;;5.57;1.13;;;10.10;99.90;;;;;;5069629;28;20648;-70
2023/12/23 00:21:58;;;;;;;2.70;1.43;;;10.10;99.90;;;;;;5054316;28;20183;-70
2023/12/23 00:24:24;;;;;;;3.63;1.50;;;10.10;99.90;;;;;;5054670;28;20227;-70
2023/12/23 00:26:50;;;;;;;2.93;1.30;;;10.10;99.90;;;;;;5054402;28;20197;-70
2023/12/23 00:29:16;;;;;;;2.60;1.10;;;10.20;99.90;;;;;;5056175;28;20631;-70
2023/12/23 00:31:41;;;;;;;3.73;1.40;;;10.10;99.90;;;;;;5074051;28;20496;-70
2023/12/23 00:34:07;;;;;;;4.20;1.53;;;10.10;99.90;;;;;;5074363;28;20628;-69
2023/12/23 00:36:32;;;;;;;2.10;1.30;;;10.10;99.90;;;;;;5056090;28;20262;-70
2023/12/23 00:38:58;;;;;;;4.77;1.60;;;10.10;99.90;;;;;;5074225;28;20196;-70
2023/12/23 00:41:24;;;;;;;3.53;1.60;;;10.10;99.90;;;;;;5054465;28;20174;-70
2023/12/23 00:43:49;;;;;;;3.57;1.47;;;10.00;99.90;;;;;;5054122;28;20697;-69
2023/12/23 00:46:16;;;;;;;4.17;1.83;;;9.90;99.90;;;;;;5053971;28;20568;-70
2023/12/23 00:48:42;;;;;;;3.37;1.50;;;9.70;99.90;;;;;;5054057;28;20203;-70
2023/12/23 00:51:08;;;;;;;2.23;1.10;;;9.70;99.90;;;;;;5035071;28;20981;-70
2023/12/23 00:53:34;;;;;;;2.70;1.20;;;9.60;99.90;;;;;;5032936;28;20413;-70
2023/12/23 00:55:59;;;;;;;4.53;1.30;;;9.60;99.90;;;;;;5034055;28;20410;-70
2023/12/23 00:58:25;;;;;;;1.73;1.13;;;9.60;99.90;;;;;;5034036;28;20188;-70
2023/12/23 01:00:51;;;;;;;4.03;1.30;;;9.60;99.90;;;;;;5048555;28;20584;-70
2023/12/23 01:03:16;;;;;;;3.90;1.43;;;9.60;99.90;;;;;;5054123;28;20185;-70
2023/12/23 01:05:42;;;;;;;2.87;1.10;;;9.60;99.90;;;;;;5050754;28;20635;-69
2023/12/23 01:08:08;;;;;;;4.57;1.60;;;9.60;99.90;;;;;;5053710;28;20180;-70
2023/12/23 01:10:33;;;;;;;3.90;1.80;;;9.60;99.90;;;;;;5041495;28;20277;-70
2023/12/23 01:12:59;;;;;;;2.63;1.23;;;9.60;99.90;;;;;;5034417;28;20181;-70
2023/12/23 01:15:25;;;;;;;2.60;1.27;;;9.60;99.90;;;;;;5034050;28;20216;-69
2023/12/23 01:17:50;;;;;;;1.87;0.90;;;9.60;99.90;;;;;;5034148;28;20191;-70
2023/12/23 01:20:16;;;;;;;2.90;1.10;;;9.70;99.90;;;;;;5043598;28;20618;-70
2023/12/23 01:22:41;;;;;;;3.70;1.37;;;9.70;99.90;;;;;;5054003;28;20184;-70
2023/12/23 01:25:07;;;;;;;3.83;1.63;;;9.70;99.90;;;;;;5053166;28;20199;-70
2023/12/23 01:27:33;;;;;;;2.33;1.47;;;9.70;99.90;;;;;;5053308;28;20210;-70
2023/12/23 01:29:59;;;;;;;3.53;1.40;;;9.70;99.90;;;;;;5045338;28;20455;-70
2023/12/23 01:32:25;;;;;;;1.60;0.90;;;9.80;99.90;;;;;;5033839;28;20658;-71
2023/12/23 01:34:50;;;;;;;1.60;1.03;;;9.70;99.90;;;;;;5034099;28;20181;-70
2023/12/23 01:37:16;;;;;;;1.93;1.00;;;9.60;99.90;;;;;;5033947;28;20414;-70
2023/12/23 01:39:42;;;;;;;3.27;1.47;;;9.60;99.90;;;;;;5038488;28;20662;-70
2023/12/23 01:42:07;;;;;;;1.50;0.90;;;9.60;99.90;;;;;;5055082;28;20527;-70
2023/12/23 01:44:33;;;;;;;1.90;1.07;;;9.50;99.90;;;;;;5056601;28;20184;-70
2023/12/23 01:47:01;;;;;;;1.60;0.87;;;9.40;99.90;;;;;;5056616;28;20197;-70
2023/12/23 01:49:27;;;;;;;4.37;1.63;;;9.50;99.90;;;;;;5053397;28;20181;-70
2023/12/23 01:51:56;;;;;;;2.40;1.07;;;9.50;99.90;;;;;;5034859;28;20410;-70
2023/12/23 01:54:22;;;;;;;3.23;1.40;;;9.40;99.90;;;;;;5034330;28;20477;-70
2023/12/23 01:56:49;;;;;;;2.43;1.37;;;9.50;99.90;;;;;;5033966;28;20410;-71
2023/12/23 01:59:17;;;;;;;2.90;1.40;;;9.50;99.90;;;;;;5051363;28;20439;-70
2023/12/23 02:01:43;;;;;;;2.73;1.23;;;9.50;99.90;;;;;;5032099;28;20409;-69
2023/12/23 02:04:09;;;;;;;5.27;1.47;;;9.60;99.90;;;;;;5033180;28;20901;-70
2023/12/23 02:06:35;;;;;;;4.20;1.70;;;9.60;99.90;;;;;;5031826;28;20491;-70
2023/12/23 02:09:02;;;;;;;1.90;1.27;;;9.60;99.90;;;;;;5033185;28;20435;-70
2023/12/23 02:11:49;;;;;;;2.60;1.30;;;9.60;99.90;;;;;;5051601;28;20423;-70
2023/12/23 02:14:20;;;;;;;3.00;1.40;;;9.60;99.90;;;;;;5053083;28;20808;-70
2023/12/23 02:16:47;;;;;;;3.40;1.53;;;9.60;99.90;;;;;;5053012;28;20418;-70
2023/12/23 02:19:13;;;;;;;4.90;1.70;;;9.60;99.90;;;;;;5053018;28;20430;-70
2023/12/23 02:21:39;;;;;;;8.83;1.90;;;9.60;99.90;;;;;;5031671;28;20793;-70
2023/12/23 02:24:04;;;;;;;2.50;1.57;;;9.50;99.90;;;;;;5048699;28;20574;-70
2023/12/23 02:26:31;;;;;;;4.33;1.70;;;9.50;99.90;;;;;;5032968;28;20202;-70
2023/12/23 02:28:59;;;;;;;3.93;1.30;;;9.60;99.90;;;;;;5032835;28;20196;-70
2023/12/23 02:31:25;;;;;;;3.97;1.70;;;9.60;99.90;;;;;;5050759;28;20908;-70
2023/12/23 02:33:51;;;;;;;1.87;1.30;;;9.60;99.90;;;;;;5052604;28;20420;-70
2023/12/23 02:36:21;;;;;;;2.77;1.40;;;9.50;99.90;;;;;;5056223;28;20405;-70
2023/12/23 02:38:48;;;;;;;7.17;2.00;;;9.50;99.90;;;;;;5056368;28;20912;-70
2023/12/23 02:41:13;;;;;;;4.60;1.57;;;9.40;99.90;;;;;;5038618;28;20763;-69
2023/12/23 02:43:39;;;;;;;2.07;1.17;;;9.40;99.90;;;;;;5036681;28;20501;-70
2023/12/23 02:46:04;;;;;;;3.20;1.20;;;9.40;99.90;;;;;;5036391;28;20205;-70
2023/12/23 02:48:30;;;;;;;2.53;1.17;;;9.40;99.90;;;;;;5084731;22;20230;-69
2023/12/23 02:50:55;;;;;;;5.97;1.60;;;9.40;99.90;;;;;;5080210;28;20600;-70
2023/12/23 02:53:21;;;;;;;5.40;1.60;;;9.50;99.90;;;;;;5095873;28;20167;-70
2023/12/23 02:55:47;;;;;;;1.60;1.30;;;9.50;99.90;;;;;;5077340;28;20652;-70
2023/12/23 02:58:12;;;;;;;4.03;1.67;;;9.50;99.90;;;;;;5084273;28;20248;-70
2023/12/23 03:00:38;;;;;;;1.73;1.00;;;9.60;99.90;;;;;;5115630;28;20192;-71
2023/12/23 03:03:03;;;;;;;3.17;1.17;;;9.60;99.90;;;;;;5115784;28;20174;-71
2023/12/23 03:05:29;;;;;;;3.37;1.67;;;9.60;99.90;;;;;;5115369;28;20170;-71
2023/12/23 03:07:55;;;;;;;4.83;1.33;;;9.60;99.90;;;;;;5115940;28;20198;-69
2023/12/23 03:10:21;;;;;;;4.47;1.50;;;9.60;99.90;;;;;;5115742;28;20162;-70
2023/12/23 03:12:46;;;;;;;3.33;1.50;;;9.60;99.90;;;;;;5115683;28;20540;-71
2023/12/23 03:15:12;;;;;;;3.90;1.93;;;9.60;99.90;;;;;;5115626;28;20199;-70
2023/12/23 03:17:37;;;;;;;3.10;1.47;;;9.60;99.90;;;;;;5115715;28;20167;-70
2023/12/23 03:20:04;;;;;;;2.83;1.20;;;9.70;99.90;;;;;;5115477;28;20179;-71
2023/12/23 03:22:30;;;;;;;4.60;1.57;;;9.60;99.90;;;;;;5115659;28;20188;-70
2023/12/23 03:24:56;;;;;;;7.53;1.40;;;9.60;99.90;;;;;;5114163;28;20417;-70
2023/12/23 03:27:21;;;;;;;2.30;1.50;;;9.60;99.90;;;;;;5114122;28;20197;-70
2023/12/23 03:29:47;;;;;;;3.93;1.50;;;9.60;99.90;;;;;;5115330;28;20262;-70
2023/12/23 03:32:12;;;;;;;5.63;1.80;;;9.60;99.90;;;;;;5115380;28;20182;-70
2023/12/23 03:34:40;;;;;;;6.10;1.77;;;9.60;99.90;;;;;;5115390;28;20219;-70
2023/12/23 03:37:06;;;;;;;3.70;1.40;;;9.70;99.90;;;;;;5115243;28;20173;-70
2023/12/23 03:39:31;;;;;;;6.90;1.83;;;9.60;99.90;;;;;;5096622;28;20439;-70
2023/12/23 03:41:57;;;;;;;2.33;1.30;;;9.70;99.90;;;;;;5115507;28;20187;-70
2023/12/23 03:44:22;;;;;;;5.23;1.97;;;9.70;99.90;;;;;;5115130;28;20179;-70
2023/12/23 03:46:48;;;;;;;3.30;1.50;;;9.70;99.90;;;;;;5114236;28;20574;-71
2023/12/23 03:49:13;;;;;;;5.83;1.73;;;9.70;99.90;;;;;;5115734;28;20687;-70
2023/12/23 03:51:39;;;;;;;4.43;1.47;;;9.60;99.90;;;;;;5098108;28;20169;-70
2023/12/23 03:54:04;;;;;;;3.00;1.60;;;9.60;99.90;;;;;;5114892;28;20167;-71
2023/12/23 03:56:31;;;;;;;4.30;1.73;;;9.70;99.90;;;;;;5114539;28;20174;-70
2023/12/23 03:58:58;;;;;;;2.30;1.20;;;9.70;99.90;;;;;;5114727;28;20189;-71
2023/12/23 04:01:23;;;;;;;2.37;1.43;;;9.70;99.90;;;;;;5114723;28;20411;-70
2023/12/23 04:03:49;;;;;;;3.10;1.23;;;9.70;99.90;;;;;;5114698;28;20465;-70
2023/12/23 04:06:16;;;;;;;3.17;1.33;;;9.70;99.90;;;;;;5114725;28;20196;-70
2023/12/23 04:08:42;;;;;;;2.83;1.43;;;9.70;99.90;;;;;;5114684;28;20908;-70
2023/12/23 04:11:07;;;;;;;3.10;1.20;;;9.70;99.90;;;;;;5114540;28;20446;-70
2023/12/23 04:13:33;;;;;;;5.33;1.13;;;9.70;99.90;;;;;;5114612;28;20400;-71
2023/12/23 04:16:03;;;;;;;3.17;1.73;;;9.60;99.90;;;;;;5114939;28;20177;-70
2023/12/23 04:18:28;;;;;;;1.67;1.03;;;9.60;99.90;;;;;;5114570;28;20410;-70
2023/12/23 04:20:54;;;;;;;3.17;1.70;;;9.60;99.90;;;;;;5114369;28;20425;-70
2023/12/23 04:23:19;;;;;;;3.13;1.20;;;9.50;99.90;;;;;;5114438;28;20504;-71
2023/12/23 04:25:45;;;;;;;4.40;1.50;;;9.50;99.90;;;;;;5114710;28;20249;-70
2023/12/23 04:28:11;;;;;;;2.83;1.17;;;9.60;99.90;;;;;;5114262;28;20256;-71
2023/12/23 04:30:37;;;;;;;4.13;1.57;;;9.60;99.90;;;;;;5114413;28;20199;-71
2023/12/23 04:33:03;;;;;;;2.80;1.33;;;9.60;99.90;;;;;;5114190;28;20404;-70
2023/12/23 04:35:28;;;;;;;2.53;1.10;;;9.60;99.90;;;;;;5114137;28;20164;-70
2023/12/23 04:37:54;;;;;;;2.07;1.23;;;9.50;99.90;;;;;;5114662;28;20205;-71
2023/12/23 04:40:19;;;;;;;5.23;1.63;;;9.60;99.90;;;;;;5114002;28;20623;-71
2023/12/23 04:42:45;;;;;;;3.30;1.10;;;9.60;99.90;;;;;;5114405;28;20627;-70
2023/12/23 04:45:11;;;;;;;2.33;1.77;;;9.60;99.90;;;;;;5095637;28;20685;-70
2023/12/23 04:47:37;;;;;;;2.33;1.43;;;9.70;99.90;;;;;;5113660;28;20197;-70
2023/12/23 04:50:03;;;;;;;2.60;1.17;;;9.60;99.90;;;;;;5113918;28;20278;-71
2023/12/23 04:52:29;;;;;;;2.80;1.30;;;9.70;99.90;;;;;;5114189;28;20414;-70
2023/12/23 04:54:55;;;;;;;2.10;0.97;;;9.70;99.90;;;;;;5113701;28;20420;-71
2023/12/23 04:57:21;;;;;;;2.80;0.93;;;9.70;99.90;;;;;;5113854;28;20442;-70
2023/12/23 04:59:46;;;;;;;4.43;1.13;;;9.80;99.90;;;;;;5095154;28;20654;-70
2023/12/23 05:02:12;;;;;;;1.43;0.93;;;9.80;99.90;;;;;;5093333;28;20473;-70
2023/12/23 05:04:37;;;;;;;2.17;0.87;;;9.80;99.90;;;;;;5093575;28;20178;-71
2023/12/23 05:07:03;;;;;;;3.87;0.93;;;9.90;99.90;;;;;;5093438;28;20558;-70
2023/12/23 05:09:28;;;;;;;1.70;0.87;;;9.80;99.90;;;;;;5096495;28;20241;-70
2023/12/23 05:11:54;;;;;;;2.97;1.10;;;9.80;99.90;;;;;;5113486;28;20161;-71
2023/12/23 05:14:19;;;;;;;2.03;1.00;;;9.80;99.90;;;;;;5113545;28;20562;-71
2023/12/23 05:16:45;;;;;;;2.50;1.20;;;9.80;99.90;;;;;;5114047;28;20190;-69
2023/12/23 05:19:11;;;;;;;2.30;1.07;;;9.90;99.90;;;;;;5112485;28;20190;-71
2023/12/23 05:21:36;;;;;;;3.13;1.00;;;9.80;99.90;;;;;;5113871;28;20232;-69
2023/12/23 05:24:02;;;;;;;2.13;0.70;;;9.80;99.90;;;;;;5113559;28;20183;-71
2023/12/23 05:26:27;;;;;;;3.90;0.97;;;9.70;99.90;;;;;;5113374;28;20658;-71
2023/12/23 05:28:53;;;;;;;1.60;0.80;;;9.80;99.90;;;;;;5113232;28;20187;-70
2023/12/23 05:31:18;;;;;;;4.33;1.10;;;9.80;99.90;;;;;;5113212;28;20539;-70
2023/12/23 05:33:44;;;;;;;1.20;0.73;;;9.80;99.90;;;;;;5113097;28;20174;-70
2023/12/23 05:36:10;;;;;;;1.83;0.80;;;9.80;99.90;;;;;;5112229;28;20167;-71
2023/12/23 05:38:35;;;;;;;2.13;1.03;;;9.90;99.90;;;;;;5113335;28;20192;-70
2023/12/23 05:41:01;;;;;;;1.43;0.73;;;9.80;99.90;;;;;;5113618;28;20222;-69
2023/12/23 05:43:26;;;;;;;1.23;0.50;;;9.80;99.90;;;;;;5113250;28;20163;-70
2023/12/23 05:45:52;;;;;;;1.00;0.70;;;9.80;99.90;;;;;;5113417;28;20602;-70
2023/12/23 05:48:17;;;;;;;1.70;0.60;;;9.80;99.90;;;;;;5094401;28;20205;-70
2023/12/23 05:50:43;;;;;;;1.80;0.87;;;9.80;99.90;;;;;;5112861;28;20641;-69
2023/12/23 05:53:09;;;;;;;1.63;0.70;;;9.90;99.90;;;;;;5111564;28;20190;-70
2023/12/23 05:55:34;;;;;;;2.50;0.70;;;9.90;99.90;;;;;;5113064;28;20164;-71
2023/12/23 05:58:00;;;;;;;0.77;0.50;;;9.80;99.90;;;;;;5112894;28;20232;-70
2023/12/23 06:00:25;;;;;;;5.13;0.80;;;9.70;99.90;;;;;;5112974;28;20205;-70
2023/12/23 06:02:51;;;;;;;0.70;0.47;;;9.50;99.90;;;;;;5094888;28;20182;-70
2023/12/23 06:05:16;;;;;;;1.90;0.60;;;9.40;99.90;;;;;;5112809;28;20182;-70
2023/12/23 06:07:42;;;;;;;0.70;0.43;;;9.50;99.90;;;;;;5111782;28;20209;-70
2023/12/23 06:10:08;;;;;;;0.70;0.47;;;9.40;99.90;;;;;;5114921;28;20235;-70
2023/12/23 06:12:33;;;;;;;0.80;0.60;;;9.40;99.90;;;;;;5098619;28;20163;-70
2023/12/23 06:14:59;;;;;;;0.70;0.40;;;9.40;99.90;;;;;;5117260;28;20391;-70
2023/12/23 06:17:27;;;;;;;53.77;37.13;;;9.50;99.90;;;;;;5116893;28;20259;-70
2023/12/23 06:19:53;;;;;;;107.60;52.00;;;9.40;99.90;;;;;;5117112;28;20181;-70
2023/12/23 06:22:18;;;;;;;28.70;19.50;;;9.40;99.90;;;;;;5116931;28;20395;-70
2023/12/23 06:24:44;;;;;;;1.80;1.50;;;9.40;99.90;;;;;;5117087;28;20644;-70
2023/12/23 06:27:10;;;;;;;1.03;0.50;;;9.40;99.90;;;;;;5116828;28;20679;-70
2023/12/23 06:29:35;;;;;;;1.30;1.10;;;9.30;99.90;;;;;;5116018;28;20692;-70
2023/12/23 06:32:02;;;;;;;3.70;3.40;;;9.30;99.90;;;;;;5116562;28;20546;-70
2023/12/23 06:34:27;;;;;;;2.50;1.70;;;9.40;99.90;;;;;;5116938;28;20166;-70
2023/12/23 06:36:53;;;;;;;2.87;2.67;;;9.30;99.90;;;;;;5116767;28;20402;-70
2023/12/23 06:39:18;;;;;;;1.73;1.10;;;9.30;99.90;;;;;;5116511;28;20184;-70
2023/12/23 06:41:45;;;;;;;1.10;1.00;;;9.30;99.90;;;;;;5116415;28;20644;-70
2023/12/23 06:44:10;;;;;;;0.97;0.90;;;9.30;99.90;;;;;;5116366;28;20646;-70
2023/12/23 06:46:36;;;;;;;1.27;0.97;;;9.30;99.90;;;;;;5116251;28;20528;-70
2023/12/23 06:49:01;;;;;;;1.50;1.40;;;9.40;99.90;;;;;;5114522;28;22012;-68
2023/12/23 06:51:27;;;;;;;0.70;0.40;;;9.40;99.90;;;;;;5114972;28;20336;-71
2023/12/23 06:53:52;;;;;;;1.70;0.70;;;9.40;99.90;;;;;;5097943;28;20161;-71
2023/12/23 06:56:18;;;;;;;1.70;0.50;;;9.30;99.90;;;;;;5098001;28;20624;-70
2023/12/23 06:58:44;;;;;;;1.77;0.70;;;9.30;99.90;;;;;;5116482;28;20219;-70
2023/12/23 07:01:09;;;;;;;1.00;0.70;;;9.30;99.90;;;;;;5097634;28;20220;-70
2023/12/23 07:03:35;;;;;;;1.03;0.93;;;9.30;99.90;;;;;;5095740;28;20192;-70
2023/12/23 07:06:00;;;;;;;1.20;1.00;;;9.30;99.90;;;;;;5095663;28;20532;-69
2023/12/23 07:08:26;;;;;;;0.80;0.60;;;9.30;99.90;;;;;;5095370;28;20267;-69
2023/12/23 07:10:51;;;;;;;1.23;0.90;;;9.40;99.90;;;;;;5111319;28;20566;-70
2023/12/23 07:13:17;;;;;;;1.00;0.70;;;9.40;99.90;;;;;;5115574;28;20299;-69
2023/12/23 07:15:42;;;;;;;2.50;0.80;;;9.40;99.90;;;;;;5115798;28;20546;-71
2023/12/23 07:18:09;;;;;;;0.70;0.50;;;9.40;99.90;;;;;;5115544;28;20233;-71
2023/12/23 07:20:35;;;;;;;0.87;0.50;;;9.40;99.90;;;;;;5115116;28;20255;-70
2023/12/23 07:23:01;;;;;;;1.30;1.20;;;9.30;99.90;;;;;;5114713;28;20497;-69
2023/12/23 07:25:26;;;;;;;0.90;0.70;;;9.30;99.90;;;;;;5115533;28;20169;-70
2023/12/23 07:27:52;;;;;;;1.10;0.60;;;9.30;99.90;;;;;;5115694;28;20206;-71
2023/12/23 07:30:17;;;;;;;0.80;0.60;;;9.40;99.90;;;;;;5104233;28;20169;-69
2023/12/23 07:32:43;;;;;;;1.20;1.10;;;9.40;99.90;;;;;;5115329;28;20183;-69
2023/12/23 07:35:08;;;;;;;1.10;0.80;;;9.40;99.90;;;;;;5114104;28;20177;-71
2023/12/23 07:37:34;;;;;;;1.00;0.83;;;9.40;99.90;;;;;;5115442;28;20248;-70
2023/12/23 07:40:03;;;;;;;0.90;0.70;;;9.30;99.90;;;;;;5108845;28;20235;-71
2023/12/23 07:42:28;;;;;;;1.10;0.57;;;9.40;99.90;;;;;;5115477;28;20178;-70
2023/12/23 07:44:54;;;;;;;0.80;0.50;;;9.40;99.90;;;;;;5115485;28;20417;-70
2023/12/23 07:47:19;;;;;;;1.07;0.60;;;9.40;99.90;;;;;;5115048;28;20210;-70
2023/12/23 07:49:45;;;;;;;1.07;0.60;;;9.40;99.90;;;;;;5114927;28;20210;-71
2023/12/23 07:52:10;;;;;;;1.00;0.70;;;9.50;99.90;;;;;;5115219;28;20174;-70
2023/12/23 07:54:36;;;;;;;1.17;0.67;;;9.50;99.90;;;;;;5113766;28;20168;-70
2023/12/23 07:57:01;;;;;;;0.80;0.40;;;9.50;99.90;;;;;;5114781;28;20554;-70
2023/12/23 07:59:27;;;;;;;1.23;0.60;;;9.50;99.90;;;;;;5114557;28;20198;-69
2023/12/23 08:01:52;;;;;;;0.70;0.50;;;9.60;99.90;;;;;;5114419;28;20182;-70
2023/12/23 08:04:18;;;;;;;1.43;0.60;;;9.60;99.90;;;;;;5114732;28;20201;-70
2023/12/23 08:06:43;;;;;;;1.40;0.60;;;9.60;99.90;;;;;;5114462;28;20547;-70
2023/12/23 08:09:10;;;;;;;1.73;0.50;;;9.60;99.90;;;;;;5114348;28;20652;-71
2023/12/23 08:11:35;;;;;;;0.80;0.60;;;9.60;99.90;;;;;;5115005;28;20164;-71
2023/12/23 08:14:02;;;;;;;0.70;0.50;;;9.60;99.90;;;;;;5114469;28;20495;-70
2023/12/23 08:16:28;;;;;;;0.70;0.40;;;9.50;99.90;;;;;;5096111;28;20695;-70
2023/12/23 08:18:53;;;;;;;0.90;0.50;;;9.50;99.90;;;;;;5114129;28;20522;-70
2023/12/23 08:21:19;;;;;;;0.80;0.50;;;9.60;99.90;;;;;;5114197;28;20187;-70
2023/12/23 08:23:45;;;;;;;2.60;0.50;;;9.60;99.90;;;;;;5114085;28;20169;-70
2023/12/23 08:26:10;;;;;;;1.00;0.60;;;9.70;99.90;;;;;;5114412;28;20233;-70
2023/12/23 08:28:36;;;;;;;0.90;0.57;;;9.70;99.90;;;;;;5114614;28;20274;-69
2023/12/23 08:31:02;;;;;;;3.67;0.80;;;9.70;99.90;;;;;;5114276;28;20188;-70
2023/12/23 08:33:28;;;;;;;1.00;0.63;;;9.70;99.90;;;;;;5114381;28;20402;-70
2023/12/23 08:35:56;;;;;;;0.80;0.50;;;9.70;99.90;;;;;;5114101;28;20401;-69
2023/12/23 08:38:22;;;;;;;0.90;0.60;;;9.70;99.90;;;;;;5095714;28;20182;-69
2023/12/23 08:40:48;;;;;;;1.70;0.70;;;9.70;99.90;;;;;;5114065;28;20740;-68
2023/12/23 08:43:14;;;;;;;0.77;0.50;;;9.70;99.90;;;;;;5113260;28;20392;-70
2023/12/23 08:45:39;;;;;;;0.90;0.50;;;9.80;99.90;;;;;;5113933;28;20246;-69
2023/12/23 08:48:05;;;;;;;0.87;0.43;;;9.80;99.90;;;;;;5128364;22;20841;-69
2023/12/23 08:50:31;;;;;;;1.20;0.60;;;9.80;99.90;;;;;;5063671;28;20195;-69
2023/12/23 08:52:56;;;;;;;0.70;0.60;;;10.00;99.90;;;;;;5073888;28;20398;-69
2023/12/23 08:55:22;;;;;;;0.80;0.50;;;10.00;99.90;;;;;;5074008;28;20176;-69
2023/12/23 08:57:48;;;;;;;0.70;0.40;;;9.90;99.90;;;;;;5073918;28;20650;-69
2023/12/23 09:00:14;;;;;;;0.73;0.60;;;9.90;99.90;;;;;;5060499;28;20187;-70
2023/12/23 09:02:40;;;;;;;0.70;0.40;;;10.00;99.90;;;;;;5034247;28;20612;-70
2023/12/23 09:05:06;;;;;;;0.90;0.40;;;9.90;99.90;;;;;;5034179;28;20452;-70
2023/12/23 09:07:31;;;;;;;0.70;0.40;;;9.90;99.90;;;;;;5034399;28;20681;-70
2023/12/23 09:09:57;;;;;;;0.97;0.50;;;9.90;99.90;;;;;;5046561;28;20424;-70
2023/12/23 09:12:23;;;;;;;0.90;0.50;;;10.00;99.90;;;;;;5073937;28;20564;-70
2023/12/23 09:14:51;;;;;;;0.80;0.50;;;10.10;99.90;;;;;;5074014;28;20171;-70
2023/12/23 09:17:17;;;;;;;1.00;0.63;;;10.00;99.90;;;;;;5070316;28;20231;-70
2023/12/23 09:19:42;;;;;;;0.80;0.60;;;10.10;99.90;;;;;;5069275;28;20420;-70
2023/12/23 09:22:08;;;;;;;1.20;0.60;;;10.10;99.90;;;;;;5054026;28;20265;-70
2023/12/23 09:24:37;;;;;;;0.77;0.53;;;10.10;99.90;;;;;;5053799;28;20687;-70
2023/12/23 09:27:03;;;;;;;0.70;0.50;;;10.20;99.90;;;;;;5054041;28;20200;-70
2023/12/23 09:29:29;;;;;;;1.10;0.70;;;10.10;99.90;;;;;;5056180;28;20417;-70
2023/12/23 09:31:55;;;;;;;1.67;0.67;;;10.10;99.90;;;;;;5073839;28;20765;-70
2023/12/23 09:34:20;;;;;;;0.80;0.50;;;10.10;99.90;;;;;;5074065;28;20165;-70
2023/12/23 09:36:46;;;;;;;2.50;0.50;;;10.10;99.90;;;;;;5073754;28;20460;-71
2023/12/23 09:39:12;;;;;;;0.77;0.50;;;10.20;99.90;;;;;;5055418;28;20288;-69
2023/12/23 09:41:40;;;;;;;0.73;0.50;;;10.30;99.90;;;;;;5053434;28;20837;-70
2023/12/23 09:44:06;;;;;;;1.00;0.43;;;10.40;99.90;;;;;;5052734;28;20204;-69
2023/12/23 09:46:32;;;;;;;0.80;0.50;;;10.40;99.90;;;;;;5052803;28;20873;-69
2023/12/23 09:48:58;;;;;;;0.70;0.50;;;10.30;99.90;;;;;;5039037;28;20530;-69
2023/12/23 09:51:26;;;;;;;1.10;0.60;;;10.20;99.90;;;;;;5052806;28;20170;-69
2023/12/23 09:54:00;;;;;;;2.13;0.60;;;10.30;99.90;;;;;;5052935;28;20201;-70
2023/12/23 09:56:29;;;;;;;0.80;0.60;;;10.20;99.90;;;;;;5052849;28;20418;-69
2023/12/23 09:58:55;;;;;;;1.27;0.50;;;10.30;99.90;;;;;;5053133;28;20787;-70
2023/12/23 10:01:21;;;;;;;1.20;0.50;;;10.40;99.90;;;;;;5052630;28;20493;-69
2023/12/23 10:03:47;;;;;;;1.10;0.80;;;10.40;99.90;;;;;;5053339;28;20166;-69
2023/12/23 10:06:13;;;;;;;1.20;0.77;;;10.60;99.90;;;;;;5052977;28;20174;-68
2023/12/23 10:08:39;;;;;;;0.90;0.60;;;10.50;99.90;;;;;;5051654;28;20433;-69
2023/12/23 10:11:05;;;;;;;1.30;0.70;;;10.50;99.90;;;;;;5052688;28;20503;-69
2023/12/23 10:13:31;;;;;;;3.53;0.70;;;10.40;99.90;;;;;;5053096;28;20430;-69
2023/12/23 10:15:56;;;;;;;0.80;0.60;;;10.40;99.90;;;;;;5052695;28;20169;-68
2023/12/23 10:18:22;;;;;;;1.27;0.50;;;10.50;99.90;;;;;;5052879;28;20215;-69
2023/12/23 10:20:47;;;;;;;0.80;0.50;;;10.40;99.90;;;;;;5051308;28;20523;-69
2023/12/23 10:23:13;;;;;;;1.13;0.60;;;10.40;99.90;;;;;;5052590;28;20262;-71
2023/12/23 10:25:39;;;;;;;2.13;0.50;;;10.40;99.90;;;;;;5052764;28;20703;-69
2023/12/23 10:28:08;;;;;;;0.80;0.63;;;10.40;99.90;;;;;;5052657;28;20213;-69
2023/12/23 10:30:37;;;;;;;1.20;0.70;;;10.50;99.90;;;;;;5052638;28;20159;-67
2023/12/23 10:33:07;;;;;;;1.30;0.70;;;10.50;99.90;;;;;;5052761;28;20401;-69
2023/12/23 10:35:45;;;;;;;0.80;0.50;;;10.50;99.90;;;;;;5053223;28;20443;-69
2023/12/23 10:38:20;;;;;;;1.00;0.70;;;10.40;99.90;;;;;;5052580;28;20389;-70
2023/12/23 10:40:53;;;;;;;0.70;0.40;;;10.50;99.90;;;;;;5052551;28;20403;-70
2023/12/23 10:43:20;;;;;;;0.80;0.50;;;10.30;99.90;;;;;;5052266;28;20744;-70
2023/12/23 10:45:49;;;;;;;1.20;0.50;;;10.20;99.90;;;;;;5052522;28;20783;-70
2023/12/23 10:48:16;;;;;;;0.70;0.50;;;10.20;99.90;;;;;;5052177;28;20460;-70
2023/12/23 10:50:46;;;;;;;1.57;0.60;;;10.40;99.90;;;;;;5052540;28;20405;-69
2023/12/23 10:53:15;;;;;;;1.00;0.70;;;10.50;99.90;;;;;;5053097;28;20893;-69
2023/12/23 10:55:41;;;;;;;0.83;0.50;;;10.60;99.90;;;;;;5053694;28;20879;-70
2023/12/23 10:58:11;;;;;;;1.30;0.60;;;10.50;99.90;;;;;;5055768;28;20551;-69
2023/12/23 11:00:37;;;;;;;1.03;0.70;;;10.40;99.90;;;;;;5047705;28;20565;-70
2023/12/23 11:03:05;;;;;;;0.77;0.50;;;10.40;99.90;;;;;;5055725;28;20958;-69
2023/12/23 11:05:36;;;;;;;0.70;0.50;;;10.40;99.90;;;;;;5056214;28;20257;-70
2023/12/23 11:08:06;;;;;;;1.07;0.50;;;10.40;99.90;;;;;;5055606;28;20475;-70
2023/12/23 11:10:34;;;;;;;0.90;0.50;;;10.50;99.90;;;;;;5055545;28;20504;-70
2023/12/23 11:13:00;;;;;;;0.70;0.40;;;10.40;99.90;;;;;;5055795;28;20400;-70
2023/12/23 11:15:26;;;;;;;0.80;0.50;;;10.50;99.90;;;;;;5055110;28;20412;-70
2023/12/23 11:17:54;;;;;;;1.67;0.50;;;10.50;99.90;;;;;;5055710;28;20416;-70
2023/12/23 11:20:33;;;;;;;0.70;0.50;;;10.60;99.90;;;;;;5055998;28;20633;-70
2023/12/23 11:23:26;;;;;;;0.80;0.60;;;10.70;99.90;;;;;;5055587;28;20417;-70
2023/12/23 11:25:52;;;;;;;1.00;0.73;;;10.60;99.90;;;;;;5037761;28;20446;-70
2023/12/23 11:28:19;;;;;;;0.90;0.60;;;10.60;99.90;;;;;;5055199;28;20492;-70
2023/12/23 11:30:53;;;;;;;0.97;0.60;;;10.60;99.90;;;;;;5055340;28;20408;-70
2023/12/23 11:33:21;;;;;;;0.80;0.50;;;10.60;99.90;;;;;;5055529;28;20430;-70
2023/12/23 11:35:47;;;;;;;0.70;0.50;;;10.60;99.90;;;;;;5055645;28;20412;-70
2023/12/23 11:38:13;;;;;;;1.13;0.50;;;10.60;99.90;;;;;;5055340;28;20434;-71
2023/12/23 11:40:40;;;;;;;0.80;0.60;;;10.60;99.90;;;;;;5055536;28;20542;-70
2023/12/23 11:43:05;;;;;;;0.70;0.40;;;10.60;99.90;;;;;;5055314;28;20397;-70
2023/12/23 11:45:31;;;;;;;0.80;0.50;;;10.80;99.90;;;;;;5055062;28;20405;-70
2023/12/23 11:47:57;;;;;;;0.80;0.50;;;10.70;99.90;;;;;;5055060;28;20280;-70
2023/12/23 11:50:23;;;;;;;0.90;0.60;;;10.70;99.90;;;;;;5046503;28;20649;-70
2023/12/23 11:52:49;;;;;;;3.83;0.70;;;10.80;99.90;;;;;;5034163;28;20407;-70
2023/12/23 11:55:16;;;;;;;1.07;0.60;;;10.70;99.90;;;;;;5034418;28;20165;-70
2023/12/23 11:57:43;;;;;;;0.83;0.60;;;10.80;99.90;;;;;;5034200;28;20406;-71
2023/12/23 12:00:09;;;;;;;0.90;0.50;;;10.90;99.90;;;;;;5039385;28;20425;-70
2023/12/23 12:02:35;;;;;;;1.23;0.50;;;10.80;99.90;;;;;;5054618;28;20470;-71
2023/12/23 12:05:01;;;;;;;0.70;0.50;;;10.70;99.90;;;;;;5049680;28;20498;-70
2023/12/23 12:07:29;;;;;;;1.47;0.50;;;10.70;99.90;;;;;;5033508;28;20201;-71
2023/12/23 12:09:55;;;;;;;0.70;0.40;;;10.60;99.90;;;;;;5037139;28;20423;-71
2023/12/23 12:12:21;;;;;;;1.67;0.60;;;10.60;99.90;;;;;;5053803;28;20457;-70
2023/12/23 12:14:47;;;;;;;0.70;0.50;;;10.50;99.90;;;;;;5053632;28;20470;-71
2023/12/23 12:17:13;;;;;;;5.33;0.60;;;10.60;99.90;;;;;;5053640;28;20979;-71
2023/12/23 12:19:39;;;;;;;0.70;0.40;;;10.70;99.90;;;;;;5052669;28;20246;-70
2023/12/23 12:22:05;;;;;;;0.73;0.50;;;10.70;99.90;;;;;;5033713;28;20501;-70
2023/12/23 12:24:32;;;;;;;0.70;0.50;;;10.80;99.90;;;;;;5032604;28;20418;-70
2023/12/23 12:26:58;;;;;;;0.70;0.43;;;10.60;99.90;;;;;;5033867;28;20550;-70
2023/12/23 12:29:24;;;;;;;0.83;0.50;;;10.70;99.90;;;;;;5033447;28;20462;-70
2023/12/23 12:31:50;;;;;;;0.90;0.60;;;10.70;99.90;;;;;;5052541;28;20198;-70
2023/12/23 12:34:16;;;;;;;1.40;0.40;;;10.60;99.90;;;;;;5048811;28;20465;-70
2023/12/23 12:36:43;;;;;;;0.70;0.50;;;10.60;99.90;;;;;;5033604;28;20420;-71
2023/12/23 12:39:10;;;;;;;0.80;0.50;;;10.50;99.90;;;;;;5033453;28;20422;-71
2023/12/23 12:41:37;;;;;;;0.70;0.50;;;10.50;99.90;;;;;;5050504;28;20414;-71
2023/12/23 12:44:07;;;;;;;0.90;0.60;;;10.60;99.90;;;;;;5053635;28;20419;-70
2023/12/23 12:46:35;;;;;;;1.03;0.50;;;10.70;99.90;;;;;;5053246;28;20444;-71